Time;durP1;ratioP1;P1;durP2;ratioP2;P2;SDS_P1;SDS_P2;PMS_P1;PMS_P2;Temp;Humidity;BMP_temperature;BMP_pressure;BME280_temperature;BME280_humidity;BME280_pressure;Samples;Min_cycle;Max_cycle;Signal;HPM_P1;HPM_P2
2022/12/22 03:27:49;;;;;;;30.27;13.57;;;11.50;99.90;;;;;;5026053;28;20061;-72
2022/12/22 03:30:14;;;;;;;25.10;13.50;;;11.50;99.90;;;;;;5017940;28;20471;-73
2022/12/22 03:32:40;;;;;;;24.50;13.07;;;11.60;99.90;;;;;;5057016;28;20024;-71
2022/12/22 03:35:06;;;;;;;20.67;12.27;;;11.60;99.90;;;;;;5024864;28;20021;-73
2022/12/22 03:37:32;;;;;;;19.02;11.48;;;11.70;99.90;;;;;;5033903;28;20041;-72
2022/12/22 03:39:57;;;;;;;32.38;13.55;;;11.70;99.90;;;;;;5021891;28;20029;-73
2022/12/22 03:47:53;;;;;;;21.55;11.43;;;11.70;99.90;;;;;;5029289;28;20390;-72
2022/12/22 03:50:18;;;;;;;19.85;12.00;;;11.60;99.90;;;;;;5023144;28;20486;-73
2022/12/22 03:52:44;;;;;;;24.00;12.07;;;11.70;99.90;;;;;;5026314;28;20092;-71
2022/12/22 03:55:10;;;;;;;38.30;15.38;;;11.60;99.90;;;;;;5019494;28;20034;-73
2022/12/22 03:57:35;;;;;;;23.52;12.57;;;11.50;99.90;;;;;;5022351;28;20571;-73
2022/12/22 04:00:01;;;;;;;22.13;11.48;;;11.50;99.90;;;;;;5026259;28;20033;-71
2022/12/22 04:02:26;;;;;;;40.97;15.50;;;11.60;99.90;;;;;;5023450;28;20036;-71
2022/12/22 04:04:52;;;;;;;25.88;12.55;;;11.60;99.90;;;;;;5023057;28;20057;-71
2022/12/22 04:07:18;;;;;;;24.67;13.70;;;11.50;99.90;;;;;;5032436;28;20410;-70
2022/12/22 04:12:53;;;;;;;28.33;14.68;;;11.50;99.90;;;;;;5031832;28;20033;-70
2022/12/22 04:15:13;;;;;;;20.33;12.25;;;11.60;99.90;;;;;;5020532;28;20113;-69
2022/12/22 04:17:38;;;;;;;30.73;13.63;;;11.60;99.90;;;;;;5019305;28;20046;-70
2022/12/22 04:20:05;;;;;;;22.55;11.35;;;11.60;99.90;;;;;;5027241;28;20036;-70
2022/12/22 04:22:30;;;;;;;18.00;11.18;;;11.60;99.90;;;;;;5019630;28;20385;-70
2022/12/22 04:24:56;;;;;;;26.75;12.98;;;11.60;99.90;;;;;;5030198;28;20029;-70
2022/12/22 04:27:22;;;;;;;21.40;12.32;;;11.50;99.90;;;;;;5021028;28;20064;-70
2022/12/22 04:29:47;;;;;;;20.98;11.68;;;11.50;99.90;;;;;;5022652;28;20026;-69
2022/12/22 04:32:13;;;;;;;21.88;11.65;;;11.60;99.90;;;;;;5019993;28;20478;-71
2022/12/22 04:34:38;;;;;;;21.35;11.50;;;11.60;99.90;;;;;;5020941;28;20037;-70
2022/12/22 04:37:04;;;;;;;26.30;13.35;;;11.60;99.90;;;;;;5018356;28;20077;-70
2022/12/22 04:39:29;;;;;;;17.70;11.02;;;11.70;99.90;;;;;;5026870;28;20446;-70
2022/12/22 04:41:55;;;;;;;20.08;11.90;;;11.70;99.90;;;;;;5025484;28;20485;-70
2022/12/22 04:44:21;;;;;;;32.50;15.35;;;11.70;99.90;;;;;;5033292;28;20029;-72
2022/12/22 04:46:46;;;;;;;24.50;12.48;;;11.70;99.90;;;;;;5025724;28;20032;-71
2022/12/22 04:49:12;;;;;;;22.02;12.85;;;11.80;99.90;;;;;;5021603;28;20422;-75
2022/12/22 04:51:37;;;;;;;25.13;13.75;;;11.80;99.90;;;;;;5015377;28;20097;-74
2022/12/22 04:54:03;;;;;;;43.88;17.73;;;11.80;99.90;;;;;;5019191;28;20406;-74
2022/12/22 04:56:28;;;;;;;44.90;16.90;;;11.80;99.90;;;;;;5025355;28;20042;-73
2022/12/22 04:58:54;;;;;;;32.85;14.27;;;11.70;99.90;;;;;;5016185;28;20470;-74
2022/12/22 05:01:20;;;;;;;22.73;13.40;;;11.80;99.90;;;;;;5027024;28;20104;-74
2022/12/22 05:03:45;;;;;;;26.48;13.57;;;11.80;99.90;;;;;;5020534;28;20025;-72
2022/12/22 05:06:11;;;;;;;25.88;14.50;;;11.80;99.90;;;;;;5021360;28;20087;-74
2022/12/22 05:08:37;;;;;;;25.75;13.77;;;11.90;99.90;;;;;;5023799;28;20064;-74
2022/12/22 05:11:03;;;;;;;30.83;14.85;;;11.90;99.90;;;;;;5024334;28;20034;-72
2022/12/22 05:13:30;;;;;;;23.98;12.80;;;11.90;99.90;;;;;;5024821;28;20107;-74
2022/12/22 05:16:05;;;;;;;22.77;12.48;;;11.90;99.90;;;;;;5020912;28;20149;-73
2022/12/22 05:18:32;;;;;;;40.88;17.38;;;11.90;99.90;;;;;;5023999;28;20053;-73
2022/12/22 05:20:57;;;;;;;25.02;12.80;;;11.90;99.90;;;;;;5025011;28;20477;-74
2022/12/22 05:23:23;;;;;;;17.83;11.10;;;11.90;99.90;;;;;;5019703;28;20046;-74
2022/12/22 05:25:48;;;;;;;19.58;11.68;;;11.90;99.90;;;;;;5015515;28;20034;-74
2022/12/22 05:28:14;;;;;;;22.90;13.27;;;11.90;99.90;;;;;;5023627;28;20052;-73
2022/12/22 05:30:40;;;;;;;23.45;12.95;;;11.90;99.90;;;;;;5031003;28;20088;-74
2022/12/22 05:33:06;;;;;;;89.88;20.40;;;11.90;99.90;;;;;;5031520;28;20029;-73
2022/12/22 05:35:31;;;;;;;26.17;14.18;;;11.80;99.90;;;;;;5025247;28;20107;-74
2022/12/22 05:37:57;;;;;;;30.85;14.90;;;11.80;99.90;;;;;;5029317;28;20028;-74
2022/12/22 05:40:22;;;;;;;26.90;14.68;;;11.80;99.90;;;;;;5026283;28;20037;-73
2022/12/22 05:42:48;;;;;;;28.27;14.65;;;11.80;99.90;;;;;;5029171;28;20390;-74
2022/12/22 05:45:16;;;;;;;19.95;13.15;;;11.80;99.90;;;;;;5035777;28;20029;-73
2022/12/22 05:47:44;;;;;;;27.80;14.15;;;11.80;99.90;;;;;;5019735;28;20497;-73
2022/12/22 05:50:11;;;;;;;19.30;11.68;;;11.80;99.90;;;;;;5027643;28;20018;-73
2022/12/22 05:52:37;;;;;;;18.60;11.73;;;11.80;99.90;;;;;;5023063;28;20033;-72
2022/12/22 05:55:04;;;;;;;19.27;12.32;;;11.80;99.90;;;;;;5029334;28;20029;-74
2022/12/22 05:57:29;;;;;;;38.85;16.92;;;11.80;99.90;;;;;;5028630;28;20073;-73
2022/12/22 05:59:55;;;;;;;30.75;15.38;;;11.80;99.90;;;;;;5022893;28;20049;-73
2022/12/22 06:02:20;;;;;;;36.15;15.45;;;11.80;99.90;;;;;;5024943;28;21905;-73
2022/12/22 06:04:46;;;;;;;45.65;18.88;;;11.80;99.90;;;;;;5024408;28;20060;-73
2022/12/22 06:07:12;;;;;;;41.95;18.48;;;11.80;99.90;;;;;;5027094;28;20034;-73
2022/12/22 06:09:37;;;;;;;62.80;21.70;;;11.80;99.90;;;;;;5031083;28;20022;-74
2022/12/22 06:12:03;;;;;;;55.08;21.17;;;11.80;99.90;;;;;;5022144;28;20026;-71
2022/12/22 06:14:29;;;;;;;62.33;22.45;;;11.80;99.90;;;;;;5028343;28;20100;-71
2022/12/22 06:16:54;;;;;;;61.70;22.35;;;11.80;99.90;;;;;;5026080;28;20038;-71
2022/12/22 06:19:20;;;;;;;68.55;22.92;;;11.80;99.90;;;;;;5021450;28;20076;-73
2022/12/22 06:21:45;;;;;;;66.07;21.90;;;11.80;99.90;;;;;;5024243;28;20030;-74
2022/12/22 06:24:11;;;;;;;69.43;23.65;;;11.80;99.90;;;;;;5019131;28;20091;-70
2022/12/22 06:26:37;;;;;;;69.75;24.63;;;11.80;99.90;;;;;;5033399;28;20060;-70
2022/12/22 06:29:02;;;;;;;74.18;24.33;;;11.70;99.90;;;;;;5025679;28;20555;-71
2022/12/22 06:31:28;;;;;;;81.13;26.52;;;11.70;99.90;;;;;;5025295;28;20382;-72
2022/12/22 06:33:54;;;;;;;111.45;27.38;;;11.70;99.90;;;;;;5027293;28;20033;-71
2022/12/22 06:36:19;;;;;;;75.32;23.98;;;11.60;99.90;;;;;;5026455;28;20042;-70
2022/12/22 06:38:45;;;;;;;110.63;27.98;;;11.70;99.90;;;;;;5024987;28;20111;-73
2022/12/22 06:41:11;;;;;;;91.50;26.40;;;11.60;99.90;;;;;;5028910;28;20021;-74
2022/12/22 06:43:36;;;;;;;80.28;25.52;;;11.60;99.90;;;;;;5021625;28;20030;-70
2022/12/22 06:46:02;;;;;;;93.18;27.13;;;11.60;99.90;;;;;;5028193;28;20033;-73
2022/12/22 06:48:27;;;;;;;108.78;29.92;;;11.60;99.90;;;;;;5022408;28;20035;-70
2022/12/22 06:50:57;;;;;;;93.43;27.83;;;11.60;99.90;;;;;;5021085;28;20024;-70
2022/12/22 06:53:23;;;;;;;80.75;25.60;;;11.60;99.90;;;;;;5022978;28;20048;-72
2022/12/22 06:55:49;;;;;;;93.13;27.70;;;11.70;99.90;;;;;;5028471;28;20486;-73
2022/12/22 06:58:14;;;;;;;93.10;25.85;;;11.60;99.90;;;;;;5031129;28;20029;-70
2022/12/22 07:00:40;;;;;;;92.30;25.92;;;11.60;99.90;;;;;;5022353;28;20102;-72
2022/12/22 07:03:05;;;;;;;81.78;25.40;;;11.70;99.90;;;;;;5025903;28;20029;-72
2022/12/22 07:05:31;;;;;;;76.63;22.70;;;11.70;99.90;;;;;;5022609;28;20021;-70
2022/12/22 07:07:57;;;;;;;77.47;24.25;;;11.70;99.90;;;;;;5025897;28;20030;-70
2022/12/22 07:10:56;;;;;;;83.15;22.92;;;11.70;99.90;;;;;;5027117;28;20079;-70
2022/12/22 07:13:20;;;;;;;81.75;24.05;;;11.70;99.90;;;;;;5026658;28;20033;-71
2022/12/22 07:15:46;;;;;;;74.78;23.85;;;11.70;99.90;;;;;;5022793;28;20045;-72
2022/12/22 07:18:12;;;;;;;76.43;24.63;;;11.70;99.90;;;;;;5022654;28;20055;-70
2022/12/22 07:20:38;;;;;;;82.70;26.75;;;11.70;99.90;;;;;;5026857;28;20070;-70
2022/12/22 07:23:03;;;;;;;85.60;26.42;;;11.60;99.90;;;;;;5021933;28;20022;-72
2022/12/22 07:25:29;;;;;;;89.85;27.52;;;11.70;99.90;;;;;;5022421;28;20033;-70
2022/12/22 07:27:54;;;;;;;92.68;27.50;;;11.60;99.90;;;;;;5023967;28;20082;-69
2022/12/22 07:30:20;;;;;;;88.47;26.10;;;11.70;99.90;;;;;;5028814;28;20547;-70
2022/12/22 07:32:45;;;;;;;99.40;29.80;;;11.60;99.90;;;;;;5020079;28;20029;-70
2022/12/22 07:35:11;;;;;;;85.60;27.50;;;11.70;99.90;;;;;;5022567;28;20437;-71
2022/12/22 07:37:37;;;;;;;92.10;28.13;;;11.60;99.90;;;;;;5024380;28;20033;-70
2022/12/22 07:40:02;;;;;;;86.65;27.20;;;11.60;99.90;;;;;;5025217;28;20022;-71
2022/12/22 07:42:43;;;;;;;33.40;15.05;;;11.60;99.90;;;;;;5021003;28;20026;-73
2022/12/22 07:45:10;;;;;;;88.22;26.83;;;11.60;99.90;;;;;;5027054;28;20033;-70
2022/12/22 07:47:35;;;;;;;82.53;27.35;;;11.60;99.90;;;;;;5027361;28;20026;-74
2022/12/22 07:52:45;;;;;;;79.93;28.63;;;11.50;99.90;;;;;;5025160;28;20040;-72
2022/12/22 07:55:11;;;;;;;87.68;30.17;;;11.60;99.90;;;;;;5017440;28;20033;-73
2022/12/22 07:57:37;;;;;;;91.60;29.42;;;11.60;99.90;;;;;;5020531;28;20474;-71
2022/12/22 08:00:03;;;;;;;111.25;32.75;;;11.60;99.90;;;;;;5025581;28;20028;-74
2022/12/22 08:02:28;;;;;;;96.05;30.00;;;11.60;99.90;;;;;;5020896;28;20038;-73
2022/12/22 08:04:54;;;;;;;103.57;31.38;;;11.50;99.90;;;;;;5022821;28;20426;-71
2022/12/22 08:07:20;;;;;;;94.05;30.20;;;11.50;99.90;;;;;;5018159;28;20111;-71
2022/12/22 08:09:45;;;;;;;93.82;31.05;;;11.50;99.90;;;;;;5022321;28;20017;-74
2022/12/22 08:12:11;;;;;;;88.07;29.75;;;11.50;99.90;;;;;;5022046;28;20032;-74
2022/12/22 08:14:36;;;;;;;77.35;28.75;;;11.50;99.90;;;;;;5021001;28;20474;-71
2022/12/22 08:17:02;;;;;;;95.20;31.05;;;11.60;99.90;;;;;;5020533;28;20152;-71
2022/12/22 08:19:28;;;;;;;101.75;31.33;;;11.60;99.90;;;;;;5021628;28;20072;-70
2022/12/22 08:21:53;;;;;;;94.45;29.40;;;11.60;99.90;;;;;;5025485;28;20021;-73
2022/12/22 08:24:20;;;;;;;102.15;32.10;;;11.60;99.90;;;;;;5024241;28;20040;-71
2022/12/22 08:26:50;;;;;;;98.45;30.42;;;11.60;99.90;;;;;;5021664;28;20056;-71
2022/12/22 08:29:17;;;;;;;100.00;31.20;;;11.50;99.90;;;;;;5020107;28;20029;-70
2022/12/22 08:31:44;;;;;;;93.65;30.10;;;11.50;99.90;;;;;;5027561;28;20073;-70
2022/12/22 08:34:13;;;;;;;96.63;33.22;;;11.60;99.90;;;;;;5023366;28;20050;-72
2022/12/22 08:36:43;;;;;;;103.32;34.03;;;11.50;99.90;;;;;;5025423;28;20038;-71
2022/12/22 08:39:09;;;;;;;113.80;35.70;;;11.50;99.90;;;;;;5020833;28;20029;-72
2022/12/22 08:41:50;;;;;;;135.93;39.05;;;11.50;99.90;;;;;;5027203;28;20057;-73
2022/12/22 08:44:17;;;;;;;138.60;43.60;;;11.50;99.90;;;;;;5023892;28;20029;-73
2022/12/22 08:46:43;;;;;;;114.43;38.03;;;11.50;99.90;;;;;;5020197;28;20516;-73
2022/12/22 08:49:09;;;;;;;118.70;39.50;;;11.50;99.90;;;;;;5019912;28;20014;-73
2022/12/22 08:51:34;;;;;;;128.43;43.20;;;11.50;99.90;;;;;;5029503;28;20029;-72
2022/12/22 08:54:00;;;;;;;119.97;41.97;;;11.50;99.90;;;;;;5022073;28;20034;-70
2022/12/22 08:56:25;;;;;;;115.25;41.35;;;11.40;99.90;;;;;;5021516;28;20133;-70
2022/12/22 08:58:51;;;;;;;116.03;42.38;;;11.50;99.90;;;;;;5021859;28;20038;-70
2022/12/22 09:01:21;;;;;;;121.18;41.85;;;11.40;99.90;;;;;;5023551;28;20468;-70
2022/12/22 09:03:52;;;;;;;108.55;40.08;;;11.50;99.90;;;;;;5023504;28;20030;-69
2022/12/22 09:06:19;;;;;;;117.65;42.88;;;11.50;99.90;;;;;;5027267;28;20033;-69
2022/12/22 09:08:45;;;;;;;120.50;43.60;;;11.50;99.90;;;;;;5021409;28;20489;-69
2022/12/22 09:11:11;;;;;;;115.03;41.00;;;11.50;99.90;;;;;;5027358;28;20132;-69
2022/12/22 09:13:37;;;;;;;112.93;43.08;;;11.50;99.90;;;;;;5028430;28;20505;-69
2022/12/22 09:16:07;;;;;;;118.47;44.92;;;11.50;99.90;;;;;;5029170;28;20070;-71
2022/12/22 09:18:33;;;;;;;105.28;40.17;;;11.40;99.90;;;;;;5023046;28;20484;-70
2022/12/22 09:20:58;;;;;;;104.68;40.15;;;11.40;99.90;;;;;;5025863;28;20040;-70
2022/12/22 09:23:24;;;;;;;97.90;36.13;;;11.40;99.90;;;;;;5028912;28;20490;-70
2022/12/22 09:25:50;;;;;;;92.95;37.25;;;11.40;99.90;;;;;;5033168;28;20025;-70
2022/12/22 09:28:16;;;;;;;104.55;38.72;;;11.30;99.90;;;;;;5022742;28;20505;-70
2022/12/22 09:30:42;;;;;;;96.47;37.20;;;11.30;99.90;;;;;;5025410;28;20101;-68
2022/12/22 09:33:07;;;;;;;85.88;34.42;;;11.30;99.90;;;;;;5025699;28;20030;-69
2022/12/22 09:35:33;;;;;;;93.45;36.97;;;11.20;99.90;;;;;;5024581;28;20021;-69
2022/12/22 09:37:58;;;;;;;84.20;34.15;;;11.20;99.90;;;;;;5028367;28;20069;-69
2022/12/22 09:40:25;;;;;;;79.72;31.67;;;11.20;99.90;;;;;;5033174;28;20029;-69
2022/12/22 09:42:51;;;;;;;71.53;28.70;;;11.20;99.90;;;;;;5029124;28;20029;-69
2022/12/22 09:45:20;;;;;;;75.47;29.40;;;11.10;99.90;;;;;;5028936;28;20096;-69
2022/12/22 09:47:52;;;;;;;88.45;29.25;;;11.20;99.90;;;;;;5025097;28;20390;-69
2022/12/22 09:50:22;;;;;;;81.70;29.30;;;11.10;99.90;;;;;;5028578;28;20018;-70
2022/12/22 09:53:12;;;;;;;79.22;30.77;;;11.10;99.90;;;;;;5024049;28;20034;-73
2022/12/22 09:55:47;;;;;;;69.88;28.05;;;11.10;99.90;;;;;;5060572;28;20022;-70
2022/12/22 09:58:33;;;;;;;86.50;31.50;;;11.00;99.90;;;;;;5030845;28;20034;-69
2022/12/22 10:01:29;;;;;;;74.13;30.30;;;11.20;99.90;;;;;;5025834;28;20047;-68
2022/12/22 10:04:23;;;;;;;85.50;31.98;;;11.20;99.90;;;;;;5027117;28;20029;-68
2022/12/22 10:06:59;;;;;;;81.22;32.45;;;11.30;99.90;;;;;;5023741;28;20087;-69
2022/12/22 10:09:29;;;;;;;90.93;34.65;;;11.30;99.90;;;;;;5028162;28;20481;-68
2022/12/22 10:12:06;;;;;;;83.55;33.20;;;11.40;99.90;;;;;;5024680;28;20052;-69
2022/12/22 10:14:37;;;;;;;89.30;34.17;;;11.40;99.90;;;;;;5025687;28;20432;-69
2022/12/22 10:17:18;;;;;;;73.20;29.33;;;11.40;99.90;;;;;;5026840;28;20041;-69
2022/12/22 10:19:45;;;;;;;68.50;27.48;;;11.40;99.90;;;;;;5027135;28;20116;-69
2022/12/22 10:22:23;;;;;;;59.67;24.90;;;11.40;99.90;;;;;;5028336;28;20024;-69
2022/12/22 10:24:49;;;;;;;56.75;23.52;;;11.30;99.90;;;;;;5024369;28;20367;-69
2022/12/22 10:27:15;;;;;;;46.83;21.33;;;11.20;99.90;;;;;;5026499;28;20045;-69
2022/12/22 10:29:41;;;;;;;45.15;20.38;;;11.20;99.90;;;;;;5026839;28;20381;-69
2022/12/22 10:32:18;;;;;;;47.22;22.15;;;11.10;99.90;;;;;;5028225;28;20108;-69
2022/12/22 10:35:10;;;;;;;45.85;18.83;;;11.00;99.90;;;;;;5023508;28;20051;-69
2022/12/22 10:37:38;;;;;;;43.65;19.77;;;11.10;99.90;;;;;;5032449;28;20195;-68
2022/12/22 10:40:16;;;;;;;43.38;19.27;;;11.10;99.90;;;;;;5029356;28;20017;-68
2022/12/22 10:43:01;;;;;;;43.70;19.02;;;11.10;99.90;;;;;;5033347;28;20087;-69
2022/12/22 10:45:27;;;;;;;42.15;18.88;;;11.10;99.90;;;;;;5024254;28;20532;-69
2022/12/22 10:47:55;;;;;;;44.10;19.45;;;11.10;99.90;;;;;;5029932;28;20050;-70
2022/12/22 10:50:22;;;;;;;45.42;20.90;;;11.10;99.90;;;;;;5042445;28;20079;-69
2022/12/22 10:52:55;;;;;;;51.38;22.45;;;11.20;99.90;;;;;;5026921;28;20026;-69
2022/12/22 10:55:28;;;;;;;51.08;22.23;;;11.20;99.90;;;;;;5026253;28;20028;-68
2022/12/22 10:58:09;;;;;;;52.28;24.08;;;11.30;99.90;;;;;;5025282;28;20039;-68
2022/12/22 11:00:38;;;;;;;55.70;24.50;;;11.30;99.90;;;;;;5029766;28;20057;-69
2022/12/22 11:03:06;;;;;;;54.10;24.70;;;11.40;99.90;;;;;;5031033;28;20025;-69
2022/12/22 11:05:32;;;;;;;51.78;23.95;;;11.40;99.90;;;;;;5020739;28;20029;-69
2022/12/22 11:08:18;;;;;;;53.15;26.33;;;11.50;99.90;;;;;;5028052;28;20028;-68
2022/12/22 11:10:56;;;;;;;57.00;26.42;;;11.60;99.90;;;;;;5025156;28;20474;-69
2022/12/22 11:13:36;;;;;;;55.10;27.48;;;11.60;99.90;;;;;;5022940;28;20090;-68
2022/12/22 11:16:22;;;;;;;56.25;27.77;;;11.60;99.90;;;;;;5019920;28;20084;-69
2022/12/22 11:19:02;;;;;;;48.67;24.70;;;11.70;99.90;;;;;;5024817;28;20034;-68
2022/12/22 11:21:37;;;;;;;51.53;24.08;;;11.70;99.90;;;;;;5029405;28;20079;-68
2022/12/22 11:24:20;;;;;;;41.97;22.65;;;11.60;99.90;;;;;;5029710;28;20044;-69
2022/12/22 11:27:04;;;;;;;;;;;11.60;99.90;;;;;;5026089;28;20060;-66
2022/12/22 11:29:54;;;;;;;43.17;23.42;;;11.50;99.90;;;;;;5021004;28;19913;-69
2022/12/22 11:32:54;;;;;;;48.78;22.33;;;11.50;99.90;;;;;;5022263;28;20029;-68
2022/12/22 11:35:42;;;;;;;44.47;22.63;;;11.50;99.90;;;;;;5024036;28;20049;-70
2022/12/22 11:38:38;;;;;;;48.45;25.20;;;11.50;99.90;;;;;;5022558;28;20116;-69
2022/12/22 11:41:15;;;;;;;41.20;21.65;;;11.50;99.90;;;;;;5022493;28;20466;-69
2022/12/22 11:44:03;;;;;;;40.08;21.90;;;11.40;99.90;;;;;;5033851;28;20485;-70
2022/12/22 11:46:52;;;;;;;35.63;18.67;;;11.30;99.90;;;;;;5016424;28;20241;-70
2022/12/22 11:49:49;;;;;;;32.22;16.55;;;11.30;99.90;;;;;;5026908;28;20029;-68
2022/12/22 11:52:36;;;;;;;33.70;17.08;;;11.20;99.90;;;;;;5024219;28;20028;-69
2022/12/22 11:55:39;;;;;;;31.95;15.32;;;11.30;99.90;;;;;;5025598;28;20030;-69
2022/12/22 11:58:30;;;;;;;31.55;15.15;;;11.20;99.90;;;;;;5023252;28;20028;-69
2022/12/22 12:01:32;;;;;;;24.48;13.85;;;11.40;99.90;;;;;;5023987;28;20490;-69
2022/12/22 12:04:17;;;;;;;27.30;13.65;;;11.40;99.90;;;;;;5022570;28;20029;-69
2022/12/22 12:07:21;;;;;;;24.33;13.00;;;11.40;99.90;;;;;;5025765;28;20030;-70
2022/12/22 12:10:14;;;;;;;26.70;12.85;;;11.40;99.90;;;;;;5023295;28;20157;-69
2022/12/22 12:13:02;;;;;;;24.30;12.65;;;11.50;99.90;;;;;;5020315;28;20031;-69
2022/12/22 12:15:27;;;;;;;24.08;13.55;;;11.60;99.90;;;;;;5024934;28;20061;-70
2022/12/22 12:18:22;;;;;;;27.67;13.98;;;11.70;99.90;;;;;;5021468;28;20065;-69
2022/12/22 12:21:17;;;;;;;22.10;13.27;;;11.70;99.90;;;;;;5024012;28;20026;-70
2022/12/22 12:23:48;;;;;;;25.95;12.95;;;11.80;99.90;;;;;;5030359;28;20029;-70
2022/12/22 12:26:18;;;;;;;24.20;13.95;;;11.90;99.90;;;;;;5022172;28;20021;-69
2022/12/22 12:29:15;;;;;;;28.98;14.38;;;11.90;99.90;;;;;;5030239;28;20045;-70
2022/12/22 12:31:59;;;;;;;29.10;15.13;;;11.90;99.90;;;;;;5018101;28;20125;-70
2022/12/22 12:34:28;;;;;;;30.02;14.80;;;11.90;99.90;;;;;;5023198;28;20104;-72
2022/12/22 12:37:00;;;;;;;26.83;15.10;;;11.80;99.90;;;;;;5026378;28;20513;-71
2022/12/22 12:39:34;;;;;;;31.17;16.88;;;11.80;99.90;;;;;;5020406;28;20105;-69
2022/12/22 12:42:24;;;;;;;26.25;15.43;;;11.80;99.90;;;;;;5030523;28;20133;-70
2022/12/22 12:44:52;;;;;;;33.10;17.30;;;11.70;99.90;;;;;;5028000;28;20116;-69
2022/12/22 12:47:30;;;;;;;29.23;16.33;;;11.70;99.90;;;;;;5026428;28;20036;-70
2022/12/22 12:50:20;;;;;;;25.85;15.60;;;11.60;99.90;;;;;;5026501;28;20017;-69
2022/12/22 12:52:47;;;;;;;27.17;15.60;;;11.60;99.90;;;;;;5048272;28;20087;-69
2022/12/22 12:55:32;;;;;;;29.25;16.63;;;11.50;99.90;;;;;;5022428;28;20036;-70
2022/12/22 12:58:00;;;;;;;35.75;17.05;;;11.60;99.90;;;;;;5020747;28;20025;-71
2022/12/22 13:00:32;;;;;;;27.95;17.05;;;11.60;99.90;;;;;;5020230;28;20030;-69
2022/12/22 13:02:59;;;;;;;34.58;18.83;;;11.60;99.90;;;;;;5029467;28;20081;-69
2022/12/22 13:05:43;;;;;;;33.47;17.67;;;11.70;99.90;;;;;;5031332;28;20056;-69
2022/12/22 13:08:16;;;;;;;37.67;18.52;;;11.70;99.90;;;;;;5026796;28;20178;-69
2022/12/22 13:10:53;;;;;;;32.25;17.08;;;11.70;99.90;;;;;;5026057;28;20104;-69
2022/12/22 13:13:24;;;;;;;20.83;13.50;;;11.60;99.90;;;;;;5023382;28;20133;-69
2022/12/22 13:15:59;;;;;;;19.58;13.07;;;11.50;99.90;;;;;;5026333;28;20080;-69
2022/12/22 13:18:25;;;;;;;19.38;11.85;;;11.50;99.90;;;;;;5029124;28;20045;-72
2022/12/22 13:21:04;;;;;;;19.80;11.60;;;11.40;99.90;;;;;;5020618;28;20021;-69
2022/12/22 13:23:54;;;;;;;14.73;8.90;;;11.30;99.90;;;;;;5030007;28;20037;-68
2022/12/22 13:26:31;;;;;;;11.65;9.63;;;11.30;99.90;;;;;;5027260;28;20489;-68
2022/12/22 13:28:59;;;;;;;13.20;7.97;;;11.30;99.90;;;;;;5026560;28;20120;-68
2022/12/22 13:31:30;;;;;;;10.98;6.70;;;11.30;99.90;;;;;;5030655;28;20104;-70
2022/12/22 13:34:33;;;;;;;11.70;8.77;;;11.30;99.90;;;;;;5061537;28;20025;-69
2022/12/22 13:37:20;;;;;;;11.07;8.45;;;11.30;99.90;;;;;;5023878;28;20037;-69
2022/12/22 13:40:18;;;;;;;19.73;9.63;;;11.30;99.90;;;;;;5027807;28;20029;-69
2022/12/22 13:42:49;;;;;;;12.57;8.88;;;11.40;99.90;;;;;;5021258;28;20088;-70
2022/12/22 13:45:30;;;;;;;15.57;9.95;;;11.40;99.90;;;;;;5028584;28;20022;-69
2022/12/22 13:47:57;;;;;;;15.77;9.68;;;11.50;99.90;;;;;;5022154;28;20036;-70
2022/12/22 13:50:30;;;;;;;12.70;9.02;;;11.50;99.90;;;;;;5014379;28;20084;-69
2022/12/22 13:52:57;;;;;;;12.68;9.30;;;11.40;99.90;;;;;;5011312;28;20104;-69
2022/12/22 13:55:27;;;;;;;16.80;10.00;;;11.50;99.90;;;;;;5029191;28;20488;-68
2022/12/22 13:57:54;;;;;;;15.02;8.93;;;11.40;99.90;;;;;;5025283;28;20037;-72
2022/12/22 14:00:24;;;;;;;16.20;8.45;;;11.40;99.90;;;;;;5026731;28;20032;-72
2022/12/22 14:02:50;;;;;;;13.25;8.05;;;11.40;99.90;;;;;;5024241;28;20083;-68
2022/12/22 14:05:17;;;;;;;11.77;7.70;;;11.50;99.90;;;;;;5024106;28;20033;-67
2022/12/22 14:08:04;;;;;;;11.93;7.97;;;11.40;99.90;;;;;;5027887;28;20026;-68
2022/12/22 14:10:42;;;;;;;9.85;6.85;;;11.40;99.90;;;;;;5024629;28;20031;-68
2022/12/22 14:13:15;;;;;;;10.35;6.50;;;11.50;99.90;;;;;;5027912;28;20037;-68
2022/12/22 14:15:42;;;;;;;10.57;6.93;;;11.40;99.90;;;;;;5028505;28;20033;-68
2022/12/22 14:18:20;;;;;;;8.55;6.60;;;11.40;99.90;;;;;;5023435;28;20034;-68
2022/12/22 14:20:46;;;;;;;9.45;7.57;;;11.40;99.90;;;;;;5025855;28;20024;-69
2022/12/22 14:23:26;;;;;;;9.60;6.97;;;11.50;99.90;;;;;;5027340;28;20532;-69
2022/12/22 14:25:54;;;;;;;14.43;7.18;;;11.40;99.90;;;;;;5028568;28;20112;-69
2022/12/22 14:28:25;;;;;;;11.00;7.50;;;11.40;99.90;;;;;;5027391;28;20035;-69
2022/12/22 14:30:57;;;;;;;10.00;7.90;;;11.40;99.90;;;;;;5026299;28;20029;-69
2022/12/22 14:33:25;;;;;;;14.30;7.73;;;11.30;99.90;;;;;;5023178;28;20030;-70
2022/12/22 14:36:02;;;;;;;15.07;8.77;;;11.30;99.90;;;;;;5026790;28;20033;-69
2022/12/22 14:38:27;;;;;;;15.25;9.75;;;11.30;99.90;;;;;;5028611;28;20352;-69
2022/12/22 14:40:54;;;;;;;15.57;9.93;;;11.30;99.90;;;;;;5026906;28;20056;-69
2022/12/22 14:43:19;;;;;;;14.93;8.57;;;11.30;99.90;;;;;;5027878;28;20089;-69
2022/12/22 14:45:47;;;;;;;16.50;10.20;;;11.30;99.90;;;;;;5023245;28;20060;-71
2022/12/22 14:48:23;;;;;;;13.57;9.05;;;11.30;99.90;;;;;;5027231;28;20097;-69
2022/12/22 14:50:50;;;;;;;13.50;9.43;;;11.20;99.90;;;;;;5023182;28;20535;-69
2022/12/22 14:53:24;;;;;;;9.82;7.90;;;11.10;99.90;;;;;;5029651;28;21048;-69
2022/12/22 14:55:51;;;;;;;13.15;8.07;;;11.00;99.90;;;;;;5028535;28;20052;-69
2022/12/22 14:58:27;;;;;;;11.52;8.25;;;11.00;99.90;;;;;;5029508;28;20033;-70
2022/12/22 15:01:18;;;;;;;14.88;8.75;;;11.00;99.90;;;;;;5026531;28;20126;-69
2022/12/22 15:04:00;;;;;;;11.82;9.93;;;11.00;99.90;;;;;;5026792;28;20425;-69
2022/12/22 15:06:25;;;;;;;15.27;9.23;;;11.10;99.90;;;;;;5022602;28;20427;-70
2022/12/22 15:09:07;;;;;;;9.95;8.32;;;10.90;99.90;;;;;;5026902;28;20112;-70
2022/12/22 15:11:35;;;;;;;15.20;8.93;;;10.90;99.90;;;;;;5029988;28;20021;-70
2022/12/22 15:14:02;;;;;;;12.05;9.55;;;11.00;99.90;;;;;;5026233;28;20040;-71
2022/12/22 15:16:28;;;;;;;15.40;9.60;;;11.00;99.90;;;;;;5027615;28;20037;-71
2022/12/22 15:18:54;;;;;;;11.93;8.70;;;11.00;99.90;;;;;;5025526;28;20052;-71
2022/12/22 15:21:19;;;;;;;13.27;8.68;;;11.00;99.90;;;;;;5022461;28;20056;-71
2022/12/22 15:23:46;;;;;;;13.27;8.48;;;11.10;99.90;;;;;;5025541;28;20458;-72
2022/12/22 15:26:11;;;;;;;11.75;8.57;;;11.00;99.90;;;;;;5022897;28;20164;-71
2022/12/22 15:28:37;;;;;;;11.93;8.75;;;11.00;99.90;;;;;;5025147;28;20116;-70
2022/12/22 15:31:11;;;;;;;12.70;9.90;;;11.00;99.90;;;;;;5025812;28;20488;-70
2022/12/22 15:33:37;;;;;;;15.02;10.73;;;11.00;99.90;;;;;;5023855;28;20029;-71
2022/12/22 15:36:04;;;;;;;13.85;9.48;;;10.90;99.90;;;;;;5024486;28;20054;-70
2022/12/22 15:38:29;;;;;;;13.35;10.23;;;10.80;99.90;;;;;;5019764;28;20478;-70
2022/12/22 15:40:55;;;;;;;14.23;10.43;;;10.70;99.90;;;;;;5025434;28;20028;-71
2022/12/22 15:43:21;;;;;;;16.15;11.27;;;10.70;99.90;;;;;;5021625;28;20030;-70
2022/12/22 15:45:47;;;;;;;15.07;11.60;;;10.70;99.90;;;;;;5023544;28;20470;-70
2022/12/22 15:48:27;;;;;;;18.23;11.43;;;10.80;99.90;;;;;;5027059;28;20025;-70
2022/12/22 15:50:53;;;;;;;15.35;11.00;;;10.80;99.90;;;;;;5023800;28;20029;-71
2022/12/22 15:53:20;;;;;;;17.60;10.93;;;10.80;99.90;;;;;;5023490;28;20477;-70
2022/12/22 15:55:49;;;;;;;19.80;13.10;;;10.90;99.90;;;;;;5026638;28;20104;-70
2022/12/22 15:58:18;;;;;;;15.52;10.98;;;10.80;99.90;;;;;;5025943;28;20485;-70
2022/12/22 16:00:44;;;;;;;18.23;12.38;;;10.90;99.90;;;;;;5025035;28;20525;-70
2022/12/22 16:03:10;;;;;;;18.73;12.10;;;10.90;99.90;;;;;;5024077;28;20191;-69
2022/12/22 16:05:37;;;;;;;18.02;12.82;;;11.00;99.90;;;;;;5025447;28;20025;-69
2022/12/22 16:08:08;;;;;;;16.92;11.98;;;11.00;99.90;;;;;;5025718;28;20005;-69
2022/12/22 16:10:34;;;;;;;19.30;11.90;;;11.00;99.90;;;;;;5023995;28;20466;-71
2022/12/22 16:13:02;;;;;;;22.13;13.90;;;10.90;99.90;;;;;;5026879;28;20025;-71
2022/12/22 16:15:31;;;;;;;22.27;12.52;;;11.00;99.90;;;;;;5026268;28;20493;-69
2022/12/22 16:17:58;;;;;;;18.60;11.68;;;11.00;99.90;;;;;;5051600;28;20037;-70
2022/12/22 16:20:25;;;;;;;19.85;12.43;;;11.10;99.90;;;;;;5025156;28;20481;-71
2022/12/22 16:22:51;;;;;;;33.35;14.35;;;11.10;99.90;;;;;;5020202;28;20018;-70
2022/12/22 16:25:32;;;;;;;24.63;14.07;;;11.10;99.90;;;;;;5025839;28;20355;-69